Logo AVAMET
Benvolgut visitant, si us plau, ingressa Recuperar contrasenya
AVAMET paisatges

València Penya-roja

Dades diàries. Acumulats / Últims 30 dies disponibles

Data Temperatura (°C) Humitat rel. (%) Pressió rel. (hPa) Vent (km/h) Precipitació
Mínima Mitjana Màxima Amplitud
tèrmica
Mínima Mitjana Màxima Mínima Mitjana Màxima Predom. Mitjana Ràfega
màxima
Total
(mm)
Índex-n
Mínima Mitjana Màxima Mínima Mitjana Màxima n
0 a 1
P0 max
mm 5'
Dades mensuals acumulades fins l'últim dia disponible
02/2020 8,4 11,5 15,0 15,1 14,9 20,2 27,5 19,1 15 70 99 1.007 1.020 1.029   6,3 46,4 1,8
Dades anuals acumulades fins l'últim dia disponible
2020 4,7 10,1 15,5 13,6 9,3 18,3 27,5 22,8 15 70 99 1.007 1.019 1.029   7,6 72,4 156,2
Últims 30 dies disponibles
27-02-2020 10,4     17,1     24,8 14,4 20 42 74 1.010 1.013 1.015 WNW 12,5 41,8 0,0
26-02-2020 13,0     16,5     23,0 10,0 15 52 74 1.010 1.012 1.015 NW 7,0 25,6 0,0
25-02-2020 12,8     17,1     25,0 12,2 15 48 67 1.007 1.011 1.014 NW 8,4 41,8 0,0
24-02-2020 10,5     15,0     20,1 9,6 37 60 77 1.014 1.020 1.025 NW 4,7 18,4 0,0
23-02-2020 8,9     13,6     19,0 10,1 41 73 91 1.024 1.027 1.029 SSW 5,2 24,5 0,0
22-02-2020 8,8     13,3     17,9 9,1 59 76 88 1.024 1.026 1.029 NE 4,8 18,4 0,0
21-02-2020 9,4     12,9     16,6 7,2 61 78 88 1.021 1.024 1.026 NE 4,4 19,4 0,0
20-02-2020 9,2     13,0     16,9 7,7 62 79 90 1.018 1.020 1.023 N 4,6 25,6 0,0
19-02-2020 11,8     13,7     16,2 4,4 62 84 99 1.023 1.025 1.027 ESE 4,4 19,4 0,7
18-02-2020 12,2     13,8     14,9 2,7 71 85 92 1.023 1.025 1.027 NNE 5,3 22,0 1,0 0,42 0,20
17-02-2020 10,8     13,8     18,4 7,6 66 89 99 1.017 1.019 1.023 NNE 5,4 30,6 0,1
16-02-2020 11,0     13,2     16,5 5,5 74 88 97 1.019 1.020 1.022 NW 4,1 19,4 0,0
15-02-2020 10,3     14,2     17,9 7,6 57 75 88 1.019 1.020 1.022 W 5,2 19,4 0,0
14-02-2020 12,6     15,8     22,1 9,5 40 64 81 1.017 1.019 1.020 SSW 6,5 19,4 0,0
13-02-2020 11,5     14,8     18,6 7,1 66 81 93 1.014 1.016 1.018 WSW 3,8 18,4 0,0
12-02-2020 12,8     15,1     19,5 6,7 55 78 90 1.017 1.018 1.020 WSW 4,9 25,6 0,0
11-02-2020 14,8     17,7     24,5 9,7 34 63 84 1.015 1.018 1.020 SSW 7,5 29,5 0,0
10-02-2020 12,6     17,8     24,3 11,7 42 58 79 1.019 1.022 1.024 SSE 11,2 30,6 0,0
09-02-2020 10,2     13,5     17,6 7,4 61 79 87 1.021 1.023 1.026 SSE 3,9 15,8 0,0
08-02-2020 8,4     12,3     17,7 9,3 57 78 86 1.017 1.019 1.022 W 4,3 20,9 0,0
07-02-2020 10,4     12,7     15,2 4,8 63 74 82 1.017 1.019 1.020 WSW 3,1 13,3 0,0
06-02-2020 9,1     12,7     16,1 7,0 62 73 81 1.019 1.021 1.023 NNW 5,9 23,4 0,0
05-02-2020 10,7     13,7     18,3 7,6 38 69 84 1.020 1.023 1.026 NW 6,6 30,6 0,0
04-02-2020 14,3     19,3     27,5 13,2 29 48 74 1.015 1.018 1.021 SSW 8,4 29,5 0,0
03-02-2020 14,4     17,8     24,7 10,3 39 64 76 1.020 1.022 1.024 SSE 6,8 22,0 0,0
02-02-2020 14,7     18,5     24,6 9,9 41 64 74 1.020 1.021 1.023 S 8,1 24,5 0,0
01-02-2020 15,0     19,5     26,4 11,4 38 59 73 1.014 1.016 1.020 S 12,2 46,4 0,0
31-01-2020 15,0     17,8     22,3 7,3 50 58 68 1.014 1.016 1.018 S 16,5 43,9 0,0
30-01-2020 14,2     17,1     20,6 6,4 42 56 71 1.014 1.015 1.017 S 14,6 40,3 0,0
29-01-2020 15,5     17,5     21,1 5,6 51 62 71 1.014 1.016 1.017 S 15,6 40,3 0,0
Últims 13 mesos disponibles
01/2020 4,7 8,9 15,5 12,2 9,3 16,7 22,3 17,6 50 70 90 1.010 1.019 1.026 NW 8,8 72,4 154,4
12/2019 7,4 11,9 18,5 14,7 13,8 18,6 24,8 17,4 47 66 92 996 1.013 1.027 NW 11,8 104,0 84,8
11/2019 6,4 13,0 21,4 16,3 15,8 20,3 29,1 22,7 36 52 76 992 1.004 1.012 NW 15,4 76,0 4,7
10/2019 12,7 17,4 21,7 20,9 17,6 25,6 35,1 22,4 40 65 80 1.002 1.010 1.016 WNW 7,0 56,2 24,3
09/2019 16,1 21,2 24,4 24,3 21,5 27,5 33,8 17,7 37 70 82 1.004 1.011 1.018 NE 7,9 72,4 129,5
08/2019 19,3 23,7 27,3 26,6 27,0 29,7 40,9 21,6 47 70 82 1.004 1.010 1.014 ENE 7,3 62,3 4,1
07/2019 15,5 23,8 26,6 26,8 27,4 29,6 35,5 20,0 51 68 79 999 1.008 1.015 E 7,5 57,6 3,9
06/2019 15,0 19,5 24,0 22,6 20,4 25,8 33,3 18,3 38 66 81 1.002 1.009 1.016 ENE 7,7 72,4 0,0
05/2019 11,1 16,1 21,3 18,9 18,1 22,1 32,0 20,9 44 66 84 999 1.009 1.018 ENE 8,5 64,8 18,4
04/2019 10,2 12,7 16,0 15,8 15,6 19,5 29,6 19,4 40 64 96 993 1.007 1.019 NE 11,7 68,4 62,2
03/2019 9,1 11,4 16,2 15,2 13,8 19,5 29,2 20,1 40 57 83 1.004 1.017 1.024 NNE 7,8 64,8 20,6
02/2019 2,7 7,7 12,3 12,1 13,2 17,8 23,8 21,1 27 60 73 988 1.019 1.028 WNW 6,3 42,8 0,0
01/2019 2,7 8,2 13,6 12,3 13,2 17,4 21,3 18,6 33 52 72 996 1.013 1.024 O 9,7 70,9 0,7
Tots els anys disponibles
2019 2,7 15,6 27,3 18,9 13,2 22,8 40,9 38,2 27 63 96 988 1.011 1.028 NW 9,1 104,0 353,2
2018 3,9 15,9 26,6 18,9 9,3 22,5 35,6 31,7 33 64 96 992 1.014 1.035 E 9,1 92,9 720,1
2017 2,4 15,8 26,3 19,0 10,2 22,6 36,1 33,7 52 63 71 1.016 1.019 1.023 N 8,4 90,7 321,7
2016 4,3 16,2 26,7 19,0 11,4 23,2 35,8 31,5 51 65 74 1.015 1.019 1.031 N 8,3 100,0 601,3
Temperatura (°C)
Humitat relativa (%)
Velocitat del vent i ràfega màxima (km/h)
Direcció del vent (°)
Precipitació (mm)
Nota sobre les dades: s'avisa a l'usuari de la provisionalitat i no oficialitat d'aquestes dades
Logo AVAMET blanc
Web allotjada a Sollutia
Llicència de Creative CommonsLa web d'AVAMET i els seus continguts estan subjectes a una llicència de
Reconeixement - No Comercial - Compartir igual
Últimes estacions:  Forcall (Ajuntament Soci), Sant Joanet (Soci), Marines (Soci), Vilallonga - Serpis (Soci), Sorita (AVAMET), Gorga (Soci) - - -